Terminal Aerodrome Forecast
Issued by NWS

Home | Current Version | Previous Version | Text Only | Print | Product List | Glossary On
Versions: 1 2 3 4 5 6 7 8 9 10 11 12
000
FTUS44 KTSA 221100
TAFRVS
TAF
KRVS 221120Z 2212/2312 18007KT P6SM SKC
     FM221700 19011G17KT P6SM FEW060 FEW250
     FM230100 17005KT P6SM SCT250=

USA.gov is the U.S. government's official web portal to all federal, state and local government web resources and services.